Time;durP1;ratioP1;P1;durP2;ratioP2;P2;SDS_P1;SDS_P2;PMS_P1;PMS_P2;Temp;Humidity;BMP_temperature;BMP_pressure;BME280_temperature;BME280_humidity;BME280_pressure;Samples;Min_cycle;Max_cycle;Signal;HPM_P1;HPM_P2
2023/03/31 00:02:20;;;;;;;31.25;6.40;;;10.80;99.90;;;;;;4754084;30;20047;-82
2023/03/31 00:04:51;;;;;;;22.10;4.78;;;10.80;99.90;;;;;;4765709;30;20061;-81
2023/03/31 00:07:20;;;;;;;21.67;4.57;;;10.80;99.90;;;;;;4750373;30;20384;-78
2023/03/31 00:09:47;;;;;;;27.17;5.07;;;10.80;99.90;;;;;;4754545;30;20055;-82
2023/03/31 00:12:14;;;;;;;27.13;5.88;;;10.80;99.90;;;;;;4753054;30;20044;-82
2023/03/31 00:14:41;;;;;;;27.33;5.15;;;10.70;99.90;;;;;;4767083;30;20051;-81
2023/03/31 00:17:07;;;;;;;26.00;4.45;;;10.70;99.90;;;;;;4753179;30;20047;-80
2023/03/31 00:19:33;;;;;;;20.77;4.88;;;10.70;99.90;;;;;;4751452;30;20813;-80
2023/03/31 00:22:01;;;;;;;22.00;3.90;;;10.60;99.90;;;;;;4753037;30;20055;-80
2023/03/31 00:24:31;;;;;;;18.92;4.35;;;10.60;99.90;;;;;;4750954;30;20106;-80
2023/03/31 00:26:57;;;;;;;22.60;4.65;;;10.50;99.90;;;;;;4753191;30;20056;-81
2023/03/31 00:29:23;;;;;;;15.55;3.53;;;10.50;99.90;;;;;;4755687;30;20492;-81
2023/03/31 00:31:49;;;;;;;19.02;3.67;;;10.50;99.90;;;;;;4768352;30;20055;-81
2023/03/31 00:34:14;;;;;;;19.08;3.70;;;10.40;99.90;;;;;;4768581;30;20087;-81
2023/03/31 00:36:44;;;;;;;19.80;3.65;;;10.40;99.90;;;;;;4769877;30;20047;-81
2023/03/31 00:39:10;;;;;;;22.30;3.75;;;10.30;99.90;;;;;;4750436;30;20381;-81
2023/03/31 00:41:37;;;;;;;28.15;5.03;;;10.20;99.90;;;;;;4754927;30;20062;-81
2023/03/31 00:44:21;;;;;;;23.67;4.03;;;10.20;99.90;;;;;;4751449;30;20106;-81
2023/03/31 00:47:17;;;;;;;28.33;4.07;;;10.20;99.90;;;;;;4767582;30;20059;-81
2023/03/31 00:49:45;;;;;;;21.80;4.37;;;10.00;99.90;;;;;;4754811;30;20052;-81
2023/03/31 00:52:23;;;;;;;26.73;4.72;;;10.00;99.90;;;;;;4753581;30;20047;-81
2023/03/31 00:54:52;;;;;;;21.58;3.72;;;9.90;99.90;;;;;;4767218;30;20044;-81
2023/03/31 00:57:19;;;;;;;20.17;4.95;;;9.90;99.90;;;;;;4768228;30;20107;-81
2023/03/31 00:59:51;;;;;;;28.73;4.57;;;9.90;99.90;;;;;;4752413;30;20040;-81
2023/03/31 01:02:19;;;;;;;22.30;4.40;;;9.90;99.90;;;;;;4738752;30;20780;-81
2023/03/31 01:04:54;;;;;;;23.27;4.45;;;9.80;99.90;;;;;;4752424;30;20077;-81
2023/03/31 01:07:29;;;;;;;18.35;3.55;;;9.80;99.90;;;;;;4755048;30;20576;-81
2023/03/31 01:09:58;;;;;;;23.77;5.18;;;9.70;99.90;;;;;;4750695;30;20454;-81
2023/03/31 01:12:26;;;;;;;20.88;4.30;;;9.70;99.90;;;;;;4752791;30;20044;-81
2023/03/31 01:14:52;;;;;;;20.65;3.10;;;9.70;99.90;;;;;;4766837;30;20111;-81
2023/03/31 01:17:20;;;;;;;23.67;3.42;;;9.70;99.90;;;;;;4769499;30;20080;-81
2023/03/31 01:20:14;;;;;;;22.30;4.95;;;8.80;99.90;;;;;;4751691;30;20056;-81
2023/03/31 01:22:58;;;;;;;18.75;3.92;;;9.60;99.90;;;;;;4754137;30;20062;-81
2023/03/31 01:25:51;;;;;;;27.25;5.25;;;9.60;99.90;;;;;;4766207;30;20088;-81
2023/03/31 01:28:32;;;;;;;25.20;3.75;;;9.60;99.90;;;;;;4755278;30;20069;-81
2023/03/31 01:31:20;;;;;;;21.17;3.78;;;9.60;99.90;;;;;;4753185;30;20540;-81
2023/03/31 01:34:20;;;;;;;21.95;3.63;;;9.60;99.90;;;;;;4752851;30;20474;-81
2023/03/31 01:36:51;;;;;;;27.15;5.18;;;9.60;99.90;;;;;;4768556;30;20051;-81
2023/03/31 01:39:28;;;;;;;20.85;3.67;;;9.60;99.90;;;;;;4751382;30;20051;-81
2023/03/31 01:42:31;;;;;;;21.83;4.15;;;9.60;99.90;;;;;;4753941;30;20044;-81
2023/03/31 01:45:30;;;;;;;24.88;3.67;;;9.60;99.90;;;;;;4734821;30;20063;-81
2023/03/31 01:48:20;;;;;;;24.73;4.03;;;9.70;99.90;;;;;;4752579;30;20113;-81
2023/03/31 01:50:56;;;;;;;21.35;4.47;;;9.60;99.90;;;;;;4767411;30;20063;-80
2023/03/31 01:53:35;;;;;;;27.88;4.50;;;9.60;99.90;;;;;;4751501;30;20055;-81
2023/03/31 01:56:09;;;;;;;24.70;4.35;;;9.60;99.90;;;;;;4752666;30;20059;-81
2023/03/31 01:58:39;;;;;;;22.15;3.95;;;9.60;99.90;;;;;;4768477;30;20047;-81
2023/03/31 02:01:14;;;;;;;19.27;3.63;;;9.50;99.90;;;;;;4769175;30;20116;-81
2023/03/31 02:03:47;;;;;;;20.80;4.47;;;9.60;99.90;;;;;;4767183;30;20047;-81
2023/03/31 02:06:20;;;;;;;21.55;3.83;;;9.60;99.90;;;;;;4750332;30;20055;-81
2023/03/31 02:08:53;;;;;;;21.40;4.05;;;9.60;99.90;;;;;;4752173;30;20515;-81
2023/03/31 02:11:20;;;;;;;26.10;4.55;;;9.50;99.90;;;;;;4750380;30;20041;-81
2023/03/31 02:13:48;;;;;;;18.63;3.25;;;9.50;99.90;;;;;;4753719;30;20311;-81
2023/03/31 02:16:23;;;;;;;20.63;3.42;;;9.50;99.90;;;;;;4768739;30;21537;-81
2023/03/31 02:18:52;;;;;;;26.08;4.40;;;9.50;99.90;;;;;;4767096;30;20077;-81
2023/03/31 02:21:21;;;;;;;17.75;3.38;;;9.50;99.90;;;;;;4751993;30;20053;-81
2023/03/31 02:23:50;;;;;;;17.00;3.15;;;9.50;99.90;;;;;;4767023;30;20403;-81
2023/03/31 02:26:20;;;;;;;17.80;3.38;;;9.60;99.90;;;;;;4765924;30;20062;-81
2023/03/31 02:28:46;;;;;;;20.85;3.38;;;9.50;99.90;;;;;;4749074;30;20051;-81
2023/03/31 02:31:33;;;;;;;19.25;3.13;;;9.60;99.90;;;;;;4753762;30;20088;-80
2023/03/31 02:34:00;;;;;;;20.48;3.83;;;9.50;99.90;;;;;;4749698;30;20751;-80
2023/03/31 02:36:25;;;;;;;21.33;3.30;;;9.50;99.90;;;;;;4750455;30;20048;-81
2023/03/31 02:38:57;;;;;;;19.00;3.25;;;9.50;99.90;;;;;;4767566;30;20057;-81
2023/03/31 02:41:23;;;;;;;15.70;3.80;;;9.50;99.90;;;;;;4751776;30;20059;-81
2023/03/31 02:43:48;;;;;;;17.95;4.28;;;9.50;99.90;;;;;;4765979;30;20055;-81
2023/03/31 02:46:14;;;;;;;17.05;2.95;;;9.60;99.90;;;;;;4765858;30;20056;-80
2023/03/31 02:48:44;;;;;;;14.95;2.83;;;9.60;99.90;;;;;;4750579;30;20059;-81
2023/03/31 02:51:42;;;;;;;17.95;3.20;;;9.60;99.90;;;;;;4750320;30;20048;-81
2023/03/31 02:54:14;;;;;;;15.40;3.65;;;9.60;99.90;;;;;;4748756;30;20475;-81
2023/03/31 02:57:04;;;;;;;20.38;4.57;;;9.60;99.90;;;;;;4747417;30;20109;-81
2023/03/31 03:00:07;;;;;;;18.27;4.93;;;9.70;99.90;;;;;;4751642;30;20103;-81
2023/03/31 03:03:02;;;;;;;19.20;3.28;;;9.80;99.90;;;;;;4766636;30;20381;-81
2023/03/31 03:05:53;;;;;;;19.27;3.50;;;9.80;99.90;;;;;;4766414;30;20059;-81
2023/03/31 03:08:25;;;;;;;15.98;3.42;;;9.80;99.90;;;;;;4708015;30;20051;-81
2023/03/31 03:11:20;;;;;;;12.57;3.40;;;9.80;99.90;;;;;;4749400;30;20058;-81
2023/03/31 03:13:46;;;;;;;12.82;3.05;;;9.90;99.90;;;;;;4767321;30;20052;-81
2023/03/31 03:16:29;;;;;;;11.40;3.08;;;9.90;99.90;;;;;;4752218;30;20051;-81
2023/03/31 03:19:00;;;;;;;13.10;2.97;;;10.00;99.90;;;;;;4738117;30;20074;-81
2023/03/31 03:21:26;;;;;;;14.02;3.55;;;9.90;99.90;;;;;;4765294;30;20052;-81
2023/03/31 03:23:51;;;;;;;10.20;3.65;;;10.00;99.90;;;;;;4752439;30;20115;-81
2023/03/31 03:26:20;;;;;;;14.75;3.38;;;10.00;99.90;;;;;;4747702;30;20066;-81
2023/03/31 03:28:47;;;;;;;15.02;3.90;;;10.00;99.90;;;;;;4748827;30;20048;-81
2023/03/31 03:31:14;;;;;;;16.92;3.90;;;10.10;99.90;;;;;;4749693;30;20040;-81
2023/03/31 03:33:40;;;;;;;10.27;3.80;;;10.10;99.90;;;;;;4753911;30;20050;-81
2023/03/31 03:36:06;;;;;;;11.88;4.22;;;10.10;99.90;;;;;;4767328;30;20036;-81
2023/03/31 03:38:31;;;;;;;12.93;3.70;;;10.10;99.90;;;;;;4752850;30;20055;-81
2023/03/31 03:40:57;;;;;;;10.88;3.97;;;10.10;99.90;;;;;;4754246;30;20060;-81
2023/03/31 03:43:23;;;;;;;10.75;4.35;;;10.10;99.90;;;;;;4753128;30;20051;-81
2023/03/31 03:45:49;;;;;;;13.55;3.92;;;10.10;99.90;;;;;;4769385;30;20052;-81
2023/03/31 03:48:15;;;;;;;12.20;3.70;;;10.10;99.90;;;;;;4750143;30;20527;-81
2023/03/31 03:50:40;;;;;;;16.02;4.45;;;10.10;99.90;;;;;;4769482;30;20044;-81
2023/03/31 03:53:07;;;;;;;12.10;4.63;;;10.10;99.90;;;;;;4753174;30;20039;-81
2023/03/31 03:55:32;;;;;;;16.10;4.80;;;10.10;99.90;;;;;;4769317;30;20040;-81
2023/03/31 03:57:58;;;;;;;12.40;4.47;;;10.10;99.90;;;;;;4753186;30;20050;-81
2023/03/31 04:00:24;;;;;;;12.35;4.47;;;10.00;99.90;;;;;;4754060;30;20109;-81
2023/03/31 04:02:50;;;;;;;14.07;4.65;;;10.10;99.90;;;;;;4754255;30;20059;-81
2023/03/31 04:05:16;;;;;;;16.30;5.05;;;10.00;99.90;;;;;;4750527;30;20056;-81
2023/03/31 04:07:41;;;;;;;13.63;5.15;;;10.00;99.90;;;;;;4741168;30;20656;-81
2023/03/31 04:10:07;;;;;;;12.60;4.93;;;9.90;99.90;;;;;;4768705;30;20065;-81
2023/03/31 04:12:34;;;;;;;13.43;5.28;;;9.90;99.90;;;;;;4769169;30;20052;-81
2023/03/31 04:15:00;;;;;;;12.30;4.60;;;9.90;99.90;;;;;;4768981;30;20606;-81
2023/03/31 04:17:35;;;;;;;10.70;4.65;;;10.00;99.90;;;;;;4752921;30;20052;-81
2023/03/31 04:20:08;;;;;;;11.15;4.78;;;10.00;99.90;;;;;;4752367;30;20063;-81
2023/03/31 04:22:34;;;;;;;12.32;4.50;;;9.90;99.90;;;;;;4754937;30;20070;-81
2023/03/31 04:25:09;;;;;;;15.65;4.60;;;9.90;99.90;;;;;;4768683;30;20403;-80
2023/03/31 04:27:35;;;;;;;12.38;4.38;;;9.90;99.90;;;;;;4754349;30;20055;-81
2023/03/31 04:30:00;;;;;;;14.18;4.65;;;10.00;99.90;;;;;;4752739;30;20044;-80
2023/03/31 04:32:27;;;;;;;9.73;4.18;;;9.90;99.90;;;;;;4750167;30;20047;-80
2023/03/31 04:35:01;;;;;;;9.88;4.25;;;10.00;99.90;;;;;;4749677;30;20521;-81
2023/03/31 04:37:33;;;;;;;9.52;4.07;;;10.00;99.90;;;;;;4750886;30;20076;-81
2023/03/31 04:40:07;;;;;;;15.27;4.10;;;9.90;99.90;;;;;;4772242;30;20056;-82
2023/03/31 04:42:32;;;;;;;10.88;4.55;;;10.00;99.90;;;;;;4758234;30;20054;-82
2023/03/31 04:44:58;;;;;;;12.07;4.57;;;9.90;99.90;;;;;;4753882;30;20499;-81
2023/03/31 04:47:24;;;;;;;13.75;4.07;;;10.00;99.90;;;;;;4772099;30;20459;-81
2023/03/31 04:49:49;;;;;;;12.15;4.47;;;10.00;99.90;;;;;;4774101;30;20044;-81
2023/03/31 04:52:15;;;;;;;11.88;4.00;;;10.00;99.90;;;;;;4757986;30;20443;-80
2023/03/31 04:54:40;;;;;;;12.35;3.55;;;10.00;99.90;;;;;;4757706;30;20424;-82
2023/03/31 04:57:06;;;;;;;17.00;4.10;;;10.00;99.90;;;;;;4747681;30;20179;-79
2023/03/31 04:59:31;;;;;;;11.55;3.65;;;10.00;99.90;;;;;;4750344;30;20075;-80
2023/03/31 05:01:57;;;;;;;16.13;3.28;;;10.10;99.90;;;;;;4751082;30;20059;-80
2023/03/31 05:04:23;;;;;;;14.10;3.70;;;10.00;99.90;;;;;;4766395;30;20040;-85
2023/03/31 05:06:48;;;;;;;12.85;3.92;;;10.00;99.90;;;;;;4768410;30;20055;-82
2023/03/31 05:09:33;;;;;;;10.20;3.10;;;10.00;99.90;;;;;;4766701;30;20096;-85
2023/03/31 05:11:58;;;;;;;10.05;3.80;;;10.00;99.90;;;;;;4747730;30;20671;-85
2023/03/31 05:14:24;;;;;;;8.48;3.10;;;10.10;99.90;;;;;;4749791;30;20119;-82
2023/03/31 05:16:50;;;;;;;11.90;3.08;;;10.10;99.90;;;;;;4749703;30;20653;-82
2023/03/31 05:19:17;;;;;;;9.63;3.58;;;10.10;99.90;;;;;;4750983;30;20058;-82
2023/03/31 05:21:42;;;;;;;11.60;3.35;;;10.10;99.90;;;;;;4733201;30;20048;-82
2023/03/31 05:24:08;;;;;;;11.00;3.67;;;10.10;99.90;;;;;;4765830;30;20209;-82
2023/03/31 05:26:34;;;;;;;10.63;3.95;;;10.10;99.90;;;;;;4752546;30;20074;-81
2023/03/31 05:28:59;;;;;;;11.65;3.53;;;10.10;99.90;;;;;;4750880;30;20054;-81
2023/03/31 05:31:26;;;;;;;9.68;3.85;;;10.10;99.90;;;;;;4751630;30;20171;-83
2023/03/31 05:33:51;;;;;;;11.52;3.03;;;10.10;99.90;;;;;;4753115;30;20040;-81
2023/03/31 05:36:17;;;;;;;11.00;3.80;;;10.10;99.90;;;;;;4766522;30;20048;-82
2023/03/31 05:38:43;;;;;;;11.95;4.07;;;10.10;99.90;;;;;;4752679;30;20139;-84
2023/03/31 05:41:09;;;;;;;11.85;3.63;;;10.00;99.90;;;;;;4750128;30;20051;-78
2023/03/31 05:43:36;;;;;;;10.05;4.13;;;10.00;99.90;;;;;;4761911;30;20112;-78
2023/03/31 05:46:02;;;;;;;10.90;3.20;;;10.00;99.90;;;;;;4751047;30;20039;-78
2023/03/31 05:48:28;;;;;;;8.45;3.30;;;10.10;99.90;;;;;;4751541;30;20059;-78
2023/03/31 05:50:57;;;;;;;12.10;3.28;;;10.00;99.90;;;;;;4764833;30;20058;-79
2023/03/31 05:53:24;;;;;;;7.65;3.17;;;10.00;99.90;;;;;;4748071;30;20469;-78
2023/03/31 05:55:59;;;;;;;14.13;4.03;;;10.00;99.90;;;;;;4751274;30;20104;-79
2023/03/31 05:58:25;;;;;;;14.80;3.45;;;10.00;99.90;;;;;;4731768;30;20465;-78
2023/03/31 06:01:10;;;;;;;11.02;2.95;;;10.00;99.90;;;;;;4765308;30;20521;-80
2023/03/31 06:03:38;;;;;;;8.38;3.13;;;10.00;99.90;;;;;;4750399;30;20111;-80
2023/03/31 06:06:04;;;;;;;8.93;3.33;;;10.00;99.90;;;;;;4750499;30;20563;-81
2023/03/31 06:08:31;;;;;;;6.28;2.90;;;10.00;99.90;;;;;;4748346;30;20069;-81
2023/03/31 06:10:57;;;;;;;10.60;3.17;;;10.00;99.90;;;;;;4750335;30;20064;-80
2023/03/31 06:13:22;;;;;;;7.25;2.78;;;10.10;99.90;;;;;;4750347;30;20040;-80
2023/03/31 06:15:56;;;;;;;9.80;3.33;;;10.00;99.90;;;;;;4767938;30;20128;-80
2023/03/31 06:18:22;;;;;;;7.95;3.78;;;10.00;99.90;;;;;;4751224;30;20047;-80
2023/03/31 06:20:49;;;;;;;8.50;3.78;;;10.00;99.90;;;;;;4766100;30;20490;-80
2023/03/31 06:23:15;;;;;;;8.23;3.70;;;10.00;99.90;;;;;;4766259;30;20054;-80
2023/03/31 06:25:41;;;;;;;8.20;4.35;;;10.00;99.90;;;;;;4767741;30;20059;-80
2023/03/31 06:28:06;;;;;;;7.95;3.30;;;10.00;99.90;;;;;;4749174;30;20063;-80
2023/03/31 06:30:32;;;;;;;9.25;3.80;;;10.20;99.90;;;;;;4752085;30;20330;-80
2023/03/31 06:32:58;;;;;;;6.80;3.38;;;10.00;99.90;;;;;;4767121;30;20078;-80
2023/03/31 06:35:23;;;;;;;8.23;3.15;;;10.00;99.90;;;;;;4765695;30;20052;-80
2023/03/31 06:37:49;;;;;;;6.78;2.50;;;10.00;99.90;;;;;;4751667;30;20047;-80
2023/03/31 06:40:14;;;;;;;10.63;3.15;;;10.00;99.90;;;;;;4749240;30;20047;-80
2023/03/31 06:42:40;;;;;;;7.00;2.95;;;10.00;99.90;;;;;;4751088;30;20071;-80
2023/03/31 06:45:06;;;;;;;7.57;2.88;;;10.00;99.90;;;;;;4751155;30;20055;-80
2023/03/31 06:47:31;;;;;;;9.35;3.72;;;10.00;99.90;;;;;;4750628;30;20453;-80
2023/03/31 06:49:57;;;;;;;10.25;3.50;;;10.10;99.90;;;;;;4765508;30;20059;-80
2023/03/31 06:52:22;;;;;;;8.15;3.22;;;10.10;99.90;;;;;;4752523;30;20043;-80
2023/03/31 06:54:48;;;;;;;9.60;3.95;;;10.10;99.90;;;;;;4751319;30;20051;-80
2023/03/31 06:57:13;;;;;;;8.18;2.83;;;10.10;99.90;;;;;;4749476;30;20459;-80
2023/03/31 06:59:39;;;;;;;7.68;2.92;;;10.10;99.90;;;;;;4765036;30;20060;-79
2023/03/31 07:02:05;;;;;;;8.25;3.20;;;10.10;99.90;;;;;;4763592;30;20484;-81
2023/03/31 07:04:31;;;;;;;16.27;3.25;;;10.00;99.90;;;;;;4737142;30;20056;-79
2023/03/31 07:06:58;;;;;;;10.43;3.38;;;10.10;99.90;;;;;;4747630;30;20783;-80
2023/03/31 07:09:23;;;;;;;9.85;2.65;;;10.00;99.90;;;;;;4732510;30;20066;-79
2023/03/31 07:11:49;;;;;;;7.78;3.00;;;10.10;99.90;;;;;;4752452;30;20040;-80
2023/03/31 07:14:14;;;;;;;10.77;3.60;;;10.10;99.90;;;;;;4742965;30;20084;-82
2023/03/31 07:16:40;;;;;;;8.23;2.92;;;10.10;99.90;;;;;;4755431;30;20043;-80
2023/03/31 07:19:06;;;;;;;7.53;3.30;;;10.10;99.90;;;;;;4739205;30;20132;-80
2023/03/31 07:21:32;;;;;;;8.10;2.78;;;10.10;99.90;;;;;;4739564;30;20048;-80
2023/03/31 07:23:58;;;;;;;5.80;2.53;;;10.10;99.90;;;;;;4740392;30;20465;-81
2023/03/31 07:26:25;;;;;;;9.95;3.00;;;10.10;99.90;;;;;;4739552;30;20048;-82
2023/03/31 07:28:51;;;;;;;10.95;2.95;;;10.10;99.90;;;;;;4740910;30;20055;-82
2023/03/31 07:31:17;;;;;;;9.35;3.42;;;10.20;99.90;;;;;;4744447;30;20044;-82
2023/03/31 07:33:43;;;;;;;7.97;3.47;;;10.10;99.90;;;;;;4741960;30;20048;-80
2023/03/31 07:36:09;;;;;;;8.77;2.42;;;10.20;99.90;;;;;;4741413;30;20181;-83
2023/03/31 07:38:35;;;;;;;9.30;3.15;;;10.20;99.90;;;;;;4742941;30;20054;-83
2023/03/31 07:41:00;;;;;;;6.80;2.17;;;10.20;99.90;;;;;;4743753;30;20055;-81
2023/03/31 07:43:29;;;;;;;6.85;2.85;;;10.20;99.90;;;;;;4753379;30;20043;-80
2023/03/31 07:45:54;;;;;;;6.47;2.47;;;10.30;99.90;;;;;;4740427;30;20141;-81
2023/03/31 07:48:21;;;;;;;7.93;2.65;;;10.30;99.90;;;;;;4744466;30;20051;-80
2023/03/31 07:50:47;;;;;;;7.72;2.33;;;10.30;99.90;;;;;;4741751;30;20105;-83
2023/03/31 07:53:13;;;;;;;9.68;3.33;;;10.30;99.90;;;;;;4742942;30;20105;-81
2023/03/31 07:55:39;;;;;;;8.10;2.70;;;10.30;99.90;;;;;;4743399;30;20062;-81
2023/03/31 07:58:05;;;;;;;7.70;2.70;;;10.30;99.90;;;;;;4741715;30;20052;-83
2023/03/31 08:00:31;;;;;;;9.70;3.65;;;10.40;99.90;;;;;;4741282;30;20062;-81
2023/03/31 08:02:56;;;;;;;12.90;3.33;;;10.40;99.90;;;;;;4736492;30;20822;-83
2023/03/31 08:05:22;;;;;;;11.85;2.70;;;10.30;99.90;;;;;;4749309;30;20287;-81
2023/03/31 08:07:49;;;;;;;12.52;3.15;;;10.40;99.90;;;;;;4748761;30;20058;-81
2023/03/31 08:10:20;;;;;;;8.93;3.08;;;10.30;99.90;;;;;;4742157;30;20083;-81
2023/03/31 08:12:45;;;;;;;10.82;3.47;;;10.40;99.90;;;;;;4740960;30;20055;-81
2023/03/31 08:15:11;;;;;;;8.38;2.40;;;10.40;99.90;;;;;;4741172;30;20048;-81
2023/03/31 08:17:37;;;;;;;10.85;2.67;;;10.50;99.90;;;;;;4740014;30;20734;-83
2023/03/31 08:20:08;;;;;;;10.73;2.65;;;10.50;99.90;;;;;;4768913;30;20073;-81
2023/03/31 08:22:37;;;;;;;8.68;2.75;;;10.50;99.90;;;;;;4749752;30;20048;-80
2023/03/31 08:25:04;;;;;;;9.15;2.42;;;10.50;99.90;;;;;;4758400;30;20047;-82
2023/03/31 08:27:34;;;;;;;11.38;2.85;;;10.50;99.90;;;;;;4757073;30;20050;-81
2023/03/31 08:30:03;;;;;;;9.25;2.85;;;10.50;99.90;;;;;;4742239;30;20044;-81
2023/03/31 08:32:33;;;;;;;6.40;2.00;;;10.60;99.90;;;;;;4763697;30;20051;-81
2023/03/31 08:34:59;;;;;;;8.65;2.15;;;10.60;99.90;;;;;;4759146;30;20046;-82
2023/03/31 08:37:27;;;;;;;10.13;2.58;;;10.60;99.90;;;;;;4744971;30;20039;-81
2023/03/31 08:39:53;;;;;;;10.30;2.38;;;10.60;99.90;;;;;;4746048;30;20070;-81
2023/03/31 08:42:38;;;;;;;10.05;2.35;;;10.70;99.90;;;;;;4758821;30;21007;-81
2023/03/31 08:45:28;;;;;;;8.95;2.42;;;10.70;99.90;;;;;;4757615;30;20083;-81
2023/03/31 08:48:03;;;;;;;9.63;2.72;;;10.70;99.90;;;;;;4745017;30;20084;-81
2023/03/31 08:50:33;;;;;;;10.20;3.70;;;10.70;99.90;;;;;;4742964;30;20130;-81
2023/03/31 08:53:02;;;;;;;9.40;1.75;;;10.70;99.90;;;;;;4739708;30;20081;-81
2023/03/31 08:55:35;;;;;;;8.43;2.17;;;10.80;99.90;;;;;;4755974;30;20055;-83
2023/03/31 08:58:12;;;;;;;9.05;2.00;;;10.80;99.90;;;;;;4758225;30;20138;-81
2023/03/31 09:01:17;;;;;;;8.32;2.17;;;10.80;99.90;;;;;;4758862;30;20531;-84
2023/03/31 09:03:48;;;;;;;11.80;2.22;;;10.90;99.90;;;;;;4743370;30;20513;-81
2023/03/31 09:06:37;;;;;;;6.90;2.22;;;10.90;99.90;;;;;;4743238;30;20126;-81
2023/03/31 09:09:08;;;;;;;10.70;2.22;;;11.00;99.90;;;;;;4744619;30;20047;-82
2023/03/31 09:11:43;;;;;;;6.53;2.40;;;11.00;99.90;;;;;;4757540;30;20083;-81
2023/03/31 09:14:36;;;;;;;5.18;1.52;;;11.10;99.90;;;;;;4741633;30;20142;-82
2023/03/31 09:17:19;;;;;;;8.07;2.03;;;11.10;99.90;;;;;;4755662;30;20055;-81
2023/03/31 09:19:57;;;;;;;8.45;3.10;;;11.10;99.90;;;;;;4742834;30;20077;-81
2023/03/31 09:22:33;;;;;;;6.65;1.63;;;11.20;99.90;;;;;;4742013;30;20047;-81
2023/03/31 09:25:19;;;;;;;8.07;2.17;;;11.30;99.90;;;;;;4740545;30;20055;-82
2023/03/31 09:27:47;;;;;;;6.05;1.65;;;11.30;99.90;;;;;;4756907;30;20127;-82
2023/03/31 09:30:26;;;;;;;9.88;1.58;;;11.30;99.90;;;;;;4742549;30;20052;-82
2023/03/31 09:33:01;;;;;;;9.50;2.15;;;11.30;99.90;;;;;;4753471;30;20039;-81
2023/03/31 09:35:28;;;;;;;6.38;1.75;;;11.40;99.90;;;;;;4742618;30;20063;-82
2023/03/31 09:37:53;;;;;;;3.72;1.10;;;11.30;99.90;;;;;;4747146;30;20044;-81
2023/03/31 09:40:25;;;;;;;5.00;1.00;;;11.40;99.90;;;;;;4731429;30;20101;-81
2023/03/31 09:43:02;;;;;;;5.35;1.42;;;11.40;99.90;;;;;;4743064;30;20623;-82
2023/03/31 09:45:29;;;;;;;5.10;1.48;;;11.50;99.90;;;;;;4757827;30;20079;-82
2023/03/31 09:47:58;;;;;;;6.07;1.63;;;11.50;99.90;;;;;;4743005;30;20043;-83
2023/03/31 09:50:25;;;;;;;7.45;2.33;;;11.50;99.90;;;;;;4746153;30;20068;-83
2023/03/31 09:53:00;;;;;;;6.80;1.65;;;11.50;99.90;;;;;;4751089;30;20039;-83
2023/03/31 09:55:57;;;;;;;4.22;0.95;;;11.50;99.90;;;;;;4754251;30;20048;-81
2023/03/31 09:58:23;;;;;;;3.47;1.92;;;11.50;99.90;;;;;;4757111;30;20044;-81
2023/03/31 10:01:05;;;;;;;2.67;0.95;;;11.50;99.90;;;;;;4744338;30;20064;-81
2023/03/31 10:03:35;;;;;;;4.93;0.95;;;11.50;99.90;;;;;;4728542;30;20731;-83
2023/03/31 10:06:13;;;;;;;5.18;1.05;;;11.60;99.90;;;;;;4753820;30;20450;-81
2023/03/31 10:08:56;;;;;;;5.22;1.05;;;11.70;99.90;;;;;;4745283;30;20134;-82
2023/03/31 10:11:23;;;;;;;3.92;0.90;;;11.80;99.90;;;;;;4742155;30;20411;-81
2023/03/31 10:14:08;;;;;;;4.15;1.75;;;11.80;99.90;;;;;;4745017;30;20062;-81
2023/03/31 10:16:51;;;;;;;2.45;0.88;;;11.90;99.90;;;;;;4756403;30;20154;-81
2023/03/31 10:19:23;;;;;;;3.47;0.88;;;11.90;99.90;;;;;;4764134;30;20043;-83
2023/03/31 10:22:01;;;;;;;2.15;0.82;;;12.00;99.90;;;;;;4768967;30;20075;-82
2023/03/31 10:24:39;;;;;;;2.97;1.10;;;12.10;99.90;;;;;;4768729;30;20048;-81
2023/03/31 10:27:16;;;;;;;2.88;0.80;;;12.10;99.90;;;;;;4753613;30;20047;-82
2023/03/31 10:29:42;;;;;;;3.55;0.90;;;12.20;99.90;;;;;;4747472;30;20393;-81
2023/03/31 10:32:21;;;;;;;4.00;1.20;;;12.30;99.90;;;;;;4747018;30;20047;-81
2023/03/31 10:34:48;;;;;;;5.15;0.95;;;12.40;99.90;;;;;;4758495;30;20059;-84
2023/03/31 10:37:21;;;;;;;8.40;2.83;;;12.40;99.90;;;;;;4747267;30;20276;-82
2023/03/31 10:39:55;;;;;;;4.22;1.20;;;12.40;99.90;;;;;;4730580;30;20075;-82
2023/03/31 10:42:21;;;;;;;4.50;1.70;;;12.50;99.90;;;;;;4741787;30;21479;-81
2023/03/31 10:44:47;;;;;;;3.70;0.90;;;12.60;99.90;;;;;;4710129;30;1023608;-81
2023/03/31 10:47:13;;;;;;;5.55;1.15;;;12.60;99.90;;;;;;4757844;30;20051;-81
2023/03/31 10:49:40;;;;;;;5.10;0.93;;;12.70;99.90;;;;;;4744724;30;21117;-79
2023/03/31 10:52:24;;;;;;;6.22;1.23;;;12.80;99.90;;;;;;4748035;30;20519;-81
2023/03/31 10:54:58;;;;;;;5.93;1.23;;;12.90;99.90;;;;;;4750398;30;20498;-81
2023/03/31 10:57:55;;;;;;;3.72;1.13;;;12.90;99.90;;;;;;4746874;30;20608;-83
2023/03/31 11:00:45;;;;;;;3.92;1.02;;;12.90;99.90;;;;;;4751641;30;20051;-84
2023/03/31 11:03:19;;;;;;;3.50;1.23;;;12.80;99.90;;;;;;4767149;30;20208;-82
2023/03/31 11:06:07;;;;;;;4.93;1.48;;;12.60;99.90;;;;;;4750040;30;20039;-83
2023/03/31 11:09:02;;;;;;;7.50;1.30;;;12.50;99.90;;;;;;4758210;30;20044;-83
2023/03/31 11:11:57;;;;;;;4.82;1.00;;;12.50;99.90;;;;;;4752204;30;20074;-83
2023/03/31 11:14:37;;;;;;;4.60;1.02;;;12.40;99.90;;;;;;4778078;30;20141;-82
2023/03/31 11:17:11;;;;;;;6.78;1.17;;;12.30;99.90;;;;;;4762179;30;20043;-83
2023/03/31 11:19:49;;;;;;;6.53;1.30;;;12.40;99.90;;;;;;4762734;30;20058;-82
2023/03/31 11:22:29;;;;;;;2.53;1.02;;;12.50;99.90;;;;;;4762455;30;20078;-83
2023/03/31 11:25:21;;;;;;;4.07;1.08;;;12.40;99.90;;;;;;4760461;30;20055;-83
2023/03/31 11:27:59;;;;;;;6.72;1.27;;;12.50;99.90;;;;;;4751902;30;20055;-82
2023/03/31 11:30:32;;;;;;;3.92;0.80;;;12.50;99.90;;;;;;4758408;30;20055;-83
2023/03/31 11:33:25;;;;;;;4.63;1.40;;;12.50;99.90;;;;;;4769517;30;20040;-83
2023/03/31 11:36:07;;;;;;;8.60;1.80;;;12.50;99.90;;;;;;4746459;30;20074;-81
2023/03/31 11:38:59;;;;;;;7.03;1.23;;;12.70;99.90;;;;;;4734994;30;20102;-82
2023/03/31 11:41:53;;;;;;;4.50;1.35;;;12.60;99.90;;;;;;4746858;30;20049;-82
2023/03/31 11:44:29;;;;;;;4.57;1.48;;;12.80;99.90;;;;;;4749624;30;20050;-82
2023/03/31 11:47:18;;;;;;;7.47;1.67;;;12.80;99.90;;;;;;4747911;30;20074;-82
2023/03/31 11:49:53;;;;;;;6.53;1.67;;;12.90;99.90;;;;;;4736271;30;20206;-82
2023/03/31 11:52:36;;;;;;;5.22;1.15;;;12.80;99.90;;;;;;4750722;30;21666;-81
2023/03/31 11:55:14;;;;;;;5.60;1.60;;;12.70;99.90;;;;;;4738407;30;20048;-80
2023/03/31 11:57:55;;;;;;;9.38;1.90;;;12.70;99.90;;;;;;4751294;30;20162;-81
2023/03/31 12:00:26;;;;;;;7.63;1.55;;;12.70;99.90;;;;;;4735865;30;20148;-80
2023/03/31 12:03:08;;;;;;;4.22;1.42;;;12.70;99.90;;;;;;4740769;30;20066;-80
2023/03/31 12:05:40;;;;;;;7.93;1.85;;;12.80;99.90;;;;;;4753118;30;20100;-81
2023/03/31 12:08:35;;;;;;;7.20;1.60;;;12.80;99.90;;;;;;4750790;30;20086;-80
2023/03/31 12:11:15;;;;;;;7.13;2.10;;;12.90;99.90;;;;;;4736962;30;20048;-80
2023/03/31 12:13:52;;;;;;;7.30;1.90;;;12.80;99.90;;;;;;4737562;30;20048;-80
2023/03/31 12:16:40;;;;;;;6.82;1.95;;;12.90;99.90;;;;;;4748170;30;20059;-82
2023/03/31 12:19:26;;;;;;;8.40;2.05;;;12.90;99.90;;;;;;4751604;30;20055;-80
2023/03/31 12:22:06;;;;;;;6.65;2.08;;;13.00;99.90;;;;;;4733821;30;20051;-77
2023/03/31 12:24:33;;;;;;;11.27;2.65;;;13.00;99.90;;;;;;4735598;30;20066;-79
2023/03/31 12:27:13;;;;;;;10.75;2.70;;;13.10;99.90;;;;;;4730928;30;20048;-79
2023/03/31 12:29:44;;;;;;;10.35;2.80;;;13.10;99.90;;;;;;4749833;30;20460;-80
2023/03/31 12:32:21;;;;;;;8.10;2.10;;;13.30;99.90;;;;;;4737238;30;20043;-82
2023/03/31 12:34:56;;;;;;;7.25;2.22;;;13.40;99.90;;;;;;4750356;30;20082;-79
2023/03/31 12:37:47;;;;;;;11.02;2.53;;;13.60;99.90;;;;;;4738651;30;20048;-81
2023/03/31 12:40:22;;;;;;;10.00;2.25;;;13.60;99.90;;;;;;4740441;30;20055;-80
2023/03/31 12:43:04;;;;;;;7.70;2.78;;;13.60;99.90;;;;;;4736003;30;20094;-80
2023/03/31 12:45:57;;;;;;;9.10;1.98;;;13.60;99.90;;;;;;4731715;30;20055;-83
2023/03/31 12:48:48;;;;;;;8.35;2.40;;;13.60;99.90;;;;;;4735191;30;20052;-82
2023/03/31 12:51:30;;;;;;;11.77;3.13;;;13.50;99.90;;;;;;4733331;30;21525;-82
2023/03/31 12:54:27;;;;;;;11.63;2.95;;;13.50;99.90;;;;;;4735145;30;20048;-81
2023/03/31 12:56:59;;;;;;;11.65;2.65;;;13.40;99.90;;;;;;4733308;30;20044;-82
2023/03/31 12:59:35;;;;;;;15.27;2.75;;;13.30;99.90;;;;;;4749745;30;20052;-82
2023/03/31 13:02:28;;;;;;;13.80;2.80;;;13.30;99.90;;;;;;4738503;30;20109;-81
2023/03/31 13:04:54;;;;;;;15.75;3.33;;;13.30;99.90;;;;;;4713816;30;20059;-82
2023/03/31 13:07:26;;;;;;;13.57;2.40;;;13.20;99.90;;;;;;4749513;30;20431;-82
2023/03/31 13:10:17;;;;;;;12.27;2.67;;;13.20;99.90;;;;;;4747474;30;20051;-83
2023/03/31 13:13:04;;;;;;;14.25;3.90;;;13.30;99.90;;;;;;4734241;30;20048;-83